createdAt,value
2019-05-09T00:02:40.002Z,10.00
2019-05-09T00:05:10.645Z,9.90
2019-05-09T00:07:47.242Z,9.90
2019-05-09T00:10:17.713Z,9.80
2019-05-09T00:12:49.354Z,9.80
2019-05-09T00:15:21.298Z,9.90
2019-05-09T00:17:53.311Z,9.80
2019-05-09T00:20:34.435Z,9.80
2019-05-09T00:23:04.989Z,9.70
2019-05-09T00:25:35.419Z,9.70
2019-05-09T00:28:06.345Z,9.70
2019-05-09T00:30:54.404Z,9.70
2019-05-09T00:33:28.093Z,9.70
2019-05-09T00:35:58.598Z,9.60
2019-05-09T00:38:37.488Z,9.50
2019-05-09T00:41:08.116Z,9.50
2019-05-09T00:43:39.757Z,9.50
2019-05-09T00:46:19.960Z,9.50
2019-05-09T00:49:07.450Z,9.50
2019-05-09T00:51:37.890Z,9.50
2019-05-09T00:54:08.418Z,9.60
2019-05-09T00:56:39.146Z,9.50
2019-05-09T00:59:09.714Z,9.60
2019-05-09T01:01:40.263Z,9.40
2019-05-09T01:04:10.800Z,9.40
2019-05-09T01:06:43.273Z,9.40
2019-05-09T01:09:14.484Z,9.40
2019-05-09T01:11:45.040Z,9.40
2019-05-09T01:14:15.514Z,9.40
2019-05-09T01:16:46.008Z,9.30
2019-05-09T01:19:16.422Z,9.30
2019-05-09T01:21:46.904Z,9.20
2019-05-09T01:24:17.362Z,9.20
2019-05-09T01:26:49.181Z,9.20
2019-05-09T01:29:19.619Z,9.10
2019-05-09T01:31:50.080Z,9.30
2019-05-09T01:34:26.895Z,9.30
2019-05-09T01:37:11.220Z,9.30
2019-05-09T01:39:43.497Z,9.20
2019-05-09T01:42:14.267Z,9.20
2019-05-09T01:44:44.906Z,9.10
2019-05-09T01:47:15.506Z,9.10
2019-05-09T01:49:45.959Z,9.10
2019-05-09T01:52:16.710Z,9.10
2019-05-09T01:54:48.713Z,9.20
2019-05-09T01:57:20.213Z,9.10
2019-05-09T01:59:50.695Z,9.10
2019-05-09T02:02:23.438Z,9.10
2019-05-09T02:04:53.385Z,9.00
2019-05-09T02:07:23.891Z,9.20
2019-05-09T02:09:54.368Z,9.20
2019-05-09T02:12:25.063Z,9.10
2019-05-09T02:15:08.025Z,9.00
2019-05-09T02:18:01.457Z,9.00
2019-05-09T02:20:26.325Z,9.10
2019-05-09T02:22:56.947Z,9.10
2019-05-09T02:25:27.438Z,9.10
2019-05-09T02:27:57.875Z,9.00
2019-05-09T02:30:28.501Z,9.00
2019-05-09T02:32:58.949Z,9.00
2019-05-09T02:35:36.512Z,9.10
2019-05-09T02:38:01.562Z,9.10
2019-05-09T02:40:32.356Z,9.00
2019-05-09T02:43:02.914Z,9.00
2019-05-09T02:45:39.770Z,9.00
2019-05-09T02:48:10.351Z,9.00
2019-05-09T02:50:40.981Z,8.90
2019-05-09T02:53:11.520Z,8.90
2019-05-09T02:55:42.213Z,8.90
2019-05-09T02:58:14.547Z,8.90
2019-05-09T03:01:11.433Z,8.90
2019-05-09T03:03:41.987Z,8.90
2019-05-09T03:06:12.414Z,8.80
2019-05-09T03:08:42.846Z,8.80
2019-05-09T03:11:13.334Z,8.90
2019-05-09T03:13:43.820Z,8.90
2019-05-09T03:16:18.769Z,8.90
2019-05-09T03:18:49.423Z,9.00
2019-05-09T03:21:31.423Z,9.10
2019-05-09T03:24:02.243Z,9.00
2019-05-09T03:26:38.631Z,9.10
2019-05-09T03:29:13.890Z,9.10
2019-05-09T03:31:45.086Z,9.20
2019-05-09T03:34:19.247Z,9.10
2019-05-09T03:36:47.782Z,9.10
2019-05-09T03:39:18.609Z,9.10
2019-05-09T03:41:49.195Z,9.10
2019-05-09T03:44:19.850Z,9.20
2019-05-09T03:47:08.253Z,9.10
2019-05-09T03:49:38.233Z,9.10
2019-05-09T03:52:08.637Z,9.10
2019-05-09T03:54:39.184Z,9.10
2019-05-09T03:57:18.051Z,9.30
2019-05-09T03:59:48.629Z,9.40
2019-05-09T04:02:19.870Z,9.50
2019-05-09T04:04:50.637Z,9.40
2019-05-09T04:07:21.367Z,9.50
2019-05-09T04:09:51.801Z,9.50
2019-05-09T04:12:22.383Z,9.60
2019-05-09T04:14:52.861Z,9.70
2019-05-09T04:17:28.065Z,9.80
2019-05-09T04:19:58.520Z,9.90
2019-05-09T04:22:29.053Z,9.90
2019-05-09T04:24:59.505Z,10.00
2019-05-09T04:27:31.331Z,10.10
2019-05-09T04:30:01.860Z,10.20
2019-05-09T04:32:32.358Z,10.30
2019-05-09T04:35:02.845Z,10.30
2019-05-09T04:37:33.583Z,10.40
2019-05-09T04:40:04.203Z,10.50
2019-05-09T04:42:43.026Z,10.50
2019-05-09T04:45:28.343Z,10.60
2019-05-09T04:47:59.962Z,10.60
2019-05-09T04:50:30.789Z,10.70
2019-05-09T04:53:01.342Z,10.80
2019-05-09T04:55:33.846Z,10.90
2019-05-09T04:58:04.928Z,10.90
2019-05-09T05:00:57.267Z,11.00
2019-05-09T05:03:28.370Z,11.00
2019-05-09T05:05:59.384Z,11.10
2019-05-09T05:08:31.095Z,11.10
2019-05-09T05:11:01.574Z,11.00
2019-05-09T05:13:32.086Z,11.10
2019-05-09T05:16:02.607Z,11.10
2019-05-09T05:18:33.072Z,11.20
2019-05-09T05:21:03.566Z,11.30
2019-05-09T05:23:41.104Z,11.40
2019-05-09T05:26:11.536Z,11.50
2019-05-09T05:28:42.069Z,11.50
2019-05-09T05:31:12.540Z,11.60
2019-05-09T05:33:53.883Z,11.70
2019-05-09T05:36:24.854Z,11.70
2019-05-09T05:38:55.269Z,11.80
2019-05-09T05:41:25.721Z,12.00
2019-05-09T05:43:58.066Z,12.20
2019-05-09T05:46:52.542Z,12.30
2019-05-09T05:49:23.599Z,12.30
2019-05-09T05:51:54.179Z,12.40
2019-05-09T05:54:24.640Z,12.50
2019-05-09T05:56:57.612Z,12.50
2019-05-09T05:59:28.713Z,12.60
2019-05-09T06:01:59.335Z,12.70
2019-05-09T06:04:30.078Z,12.80
2019-05-09T06:07:00.506Z,13.00
2019-05-09T06:09:31.307Z,13.10
2019-05-09T06:12:01.827Z,13.30
2019-05-09T06:14:32.365Z,13.40
2019-05-09T06:17:02.969Z,13.50
2019-05-09T06:19:33.702Z,13.50
2019-05-09T06:22:04.583Z,13.70
2019-05-09T06:24:38.428Z,13.80
2019-05-09T06:27:10.329Z,13.90
2019-05-09T06:29:40.303Z,13.90
2019-05-09T06:32:10.794Z,14.10
2019-05-09T06:34:42.124Z,14.10
2019-05-09T06:37:12.951Z,14.10
2019-05-09T06:39:43.519Z,14.20
2019-05-09T06:42:13.977Z,14.40
2019-05-09T06:44:59.620Z,14.40
2019-05-09T06:47:33.173Z,14.50
2019-05-09T06:50:08.079Z,14.50
2019-05-09T06:52:38.601Z,14.60
2019-05-09T06:55:09.264Z,14.60
2019-05-09T06:57:42.846Z,14.70
2019-05-09T07:00:19.395Z,14.90
2019-05-09T07:03:00.644Z,14.90
2019-05-09T07:05:48.586Z,14.90
2019-05-09T07:08:27.393Z,14.90
2019-05-09T07:10:58.494Z,15.00
2019-05-09T07:13:29.109Z,15.10
2019-05-09T07:15:59.580Z,15.10
2019-05-09T07:18:30.088Z,15.10
2019-05-09T07:21:00.841Z,15.20
2019-05-09T07:23:31.373Z,15.20
2019-05-09T07:26:17.709Z,15.20
2019-05-09T07:28:48.769Z,15.20
2019-05-09T07:31:28.369Z,15.40
2019-05-09T07:34:27.197Z,15.50
2019-05-09T07:36:58.058Z,15.50
2019-05-09T07:39:28.819Z,15.50
2019-05-09T07:41:59.778Z,15.60
2019-05-09T07:44:45.243Z,15.70
2019-05-09T07:47:04.504Z,15.70
2019-05-09T07:49:35.029Z,15.80
2019-05-09T07:52:09.479Z,15.80
2019-05-09T07:54:37.878Z,15.90
2019-05-09T07:57:08.691Z,15.80
2019-05-09T07:59:40.275Z,15.80
2019-05-09T08:02:10.750Z,15.80
2019-05-09T08:04:41.350Z,15.80
2019-05-09T08:07:11.728Z,16.00
2019-05-09T08:09:42.211Z,16.10
2019-05-09T08:12:13.001Z,16.20
2019-05-09T08:14:43.405Z,16.20
2019-05-09T08:17:13.861Z,16.20
2019-05-09T08:19:44.355Z,16.20
2019-05-09T08:22:14.806Z,16.10
2019-05-09T08:24:45.240Z,16.10
2019-05-09T08:27:17.509Z,16.20
2019-05-09T08:29:47.951Z,16.20
2019-05-09T08:32:18.668Z,16.30
2019-05-09T08:34:49.097Z,16.40
2019-05-09T08:37:19.498Z,16.50
2019-05-09T08:39:50.198Z,16.60
2019-05-09T08:42:20.634Z,16.70
2019-05-09T08:44:51.172Z,16.80
2019-05-09T08:47:21.794Z,16.90
2019-05-09T08:50:08.390Z,16.90
2019-05-09T08:52:38.850Z,17.00
2019-05-09T08:55:09.625Z,17.20
2019-05-09T08:57:40.136Z,17.20
2019-05-09T09:00:12.044Z,17.40
2019-05-09T09:02:42.564Z,17.40
2019-05-09T09:05:14.079Z,17.60
2019-05-09T09:07:48.267Z,17.70
2019-05-09T09:10:18.639Z,18.00
2019-05-09T09:12:50.407Z,18.10
2019-05-09T09:15:20.858Z,18.20
2019-05-09T09:17:51.367Z,18.40
2019-05-09T09:20:22.895Z,18.50
2019-05-09T09:22:53.559Z,18.50
2019-05-09T09:25:24.036Z,18.40
2019-05-09T09:27:54.507Z,18.30
2019-05-09T09:30:25.424Z,18.40
2019-05-09T09:32:58.364Z,18.60
2019-05-09T09:35:28.116Z,18.70
2019-05-09T09:37:58.695Z,18.80
2019-05-09T09:40:29.105Z,18.80
2019-05-09T09:42:59.635Z,18.90
2019-05-09T09:45:30.165Z,18.80
2019-05-09T09:48:00.595Z,18.90
2019-05-09T09:50:31.132Z,19.00
2019-05-09T09:53:01.630Z,18.90
2019-05-09T09:55:32.127Z,18.80
2019-05-09T09:58:04.349Z,18.70
2019-05-09T10:00:44.366Z,18.50
2019-05-09T10:03:14.881Z,18.50
2019-05-09T10:05:45.591Z,18.40
2019-05-09T10:08:18.202Z,18.40
2019-05-09T10:10:48.606Z,18.40
2019-05-09T10:13:19.191Z,18.50
2019-05-09T10:16:13.129Z,18.50
2019-05-09T10:18:51.864Z,18.70
2019-05-09T10:21:44.494Z,18.90
2019-05-09T10:24:17.358Z,18.90
2019-05-09T10:27:21.228Z,19.00
2019-05-09T10:29:52.110Z,19.00
2019-05-09T10:32:22.525Z,19.00
2019-05-09T10:34:52.976Z,18.90
2019-05-09T10:37:23.528Z,18.90
2019-05-09T10:39:54.434Z,19.10
2019-05-09T10:42:42.153Z,19.40
2019-05-09T10:45:49.916Z,19.60
2019-05-09T10:48:23.894Z,19.70
2019-05-09T10:50:54.454Z,19.80
2019-05-09T10:53:24.604Z,19.80
2019-05-09T10:55:55.248Z,19.70
2019-05-09T10:58:27.903Z,19.80
2019-05-09T11:00:58.762Z,19.70
2019-05-09T11:03:29.383Z,19.80
2019-05-09T11:06:19.282Z,19.80
2019-05-09T11:08:49.721Z,20.00
2019-05-09T11:11:20.190Z,20.30
2019-05-09T11:13:50.588Z,20.60
2019-05-09T11:16:21.271Z,20.70
2019-05-09T11:18:51.651Z,20.60
2019-05-09T11:21:22.154Z,20.60
2019-05-09T11:23:52.764Z,20.60
2019-05-09T11:26:23.209Z,20.60
2019-05-09T11:28:53.614Z,20.60
2019-05-09T11:31:23.998Z,20.80
2019-05-09T11:33:54.456Z,20.80
2019-05-09T11:36:24.909Z,20.90
2019-05-09T11:38:56.831Z,20.90
2019-05-09T11:41:29.366Z,21.00
2019-05-09T11:43:59.853Z,21.20
2019-05-09T11:46:30.564Z,21.30
2019-05-09T11:49:01.124Z,21.40
2019-05-09T11:51:31.595Z,21.40
2019-05-09T11:54:02.102Z,21.40
2019-05-09T11:56:32.558Z,21.30
2019-05-09T11:59:03.276Z,21.60
2019-05-09T12:01:33.683Z,21.70
2019-05-09T12:04:04.095Z,22.00
2019-05-09T12:06:35.094Z,22.40
2019-05-09T12:09:08.703Z,22.30
2019-05-09T12:11:43.953Z,21.80
2019-05-09T12:14:11.352Z,21.70
2019-05-09T12:16:41.781Z,22.20
2019-05-09T12:19:12.199Z,22.90
2019-05-09T12:21:47.967Z,23.00
2019-05-09T12:24:14.879Z,22.40
2019-05-09T12:26:47.995Z,21.70
2019-05-09T12:29:19.694Z,21.30
2019-05-09T12:31:49.434Z,21.10
2019-05-09T12:34:19.861Z,20.50
2019-05-09T12:36:50.331Z,20.20
2019-05-09T12:39:20.977Z,19.80
2019-05-09T12:41:51.502Z,19.70
2019-05-09T12:44:25.046Z,19.50
2019-05-09T12:46:57.978Z,19.40
2019-05-09T12:49:28.271Z,19.30
2019-05-09T12:51:59.260Z,19.20
2019-05-09T12:54:29.873Z,19.20
2019-05-09T12:57:00.336Z,19.00
2019-05-09T12:59:45.529Z,18.90
2019-05-09T13:02:02.794Z,18.90
2019-05-09T13:04:33.238Z,18.80
2019-05-09T13:07:03.732Z,18.90
2019-05-09T13:09:34.824Z,19.00
2019-05-09T13:12:05.791Z,19.00
2019-05-09T13:14:38.036Z,18.80
2019-05-09T13:17:15.025Z,18.60
2019-05-09T13:19:48.089Z,18.60
2019-05-09T13:22:18.685Z,18.60
2019-05-09T13:24:49.122Z,18.60
2019-05-09T13:27:19.590Z,18.60
2019-05-09T13:29:50.263Z,18.60
2019-05-09T13:32:21.750Z,18.60
2019-05-09T13:34:52.182Z,18.50
2019-05-09T13:37:22.860Z,18.40
2019-05-09T13:39:53.238Z,18.30
2019-05-09T13:42:23.714Z,18.30
2019-05-09T13:44:54.298Z,18.20
2019-05-09T13:47:24.792Z,18.20
2019-05-09T13:49:56.062Z,18.00
2019-05-09T13:52:27.470Z,17.80
2019-05-09T13:54:58.678Z,17.80
2019-05-09T13:57:30.429Z,17.80
2019-05-09T14:00:00.833Z,17.80
2019-05-09T14:02:31.326Z,17.70
2019-05-09T14:05:02.022Z,17.70
2019-05-09T14:07:32.544Z,17.60
2019-05-09T14:10:03.082Z,17.50
2019-05-09T14:12:33.571Z,17.50
2019-05-09T14:15:04.016Z,17.50
2019-05-09T14:17:48.075Z,17.50
2019-05-09T14:20:08.833Z,17.50
2019-05-09T14:22:38.821Z,17.50
2019-05-09T14:25:11.509Z,17.40
2019-05-09T14:27:41.479Z,17.40
2019-05-09T14:30:11.996Z,17.20
2019-05-09T14:32:42.538Z,17.20
2019-05-09T14:35:13.047Z,17.00
2019-05-09T14:37:43.491Z,17.00
2019-05-09T14:40:14.220Z,16.80
2019-05-09T14:42:44.805Z,16.70
2019-05-09T14:45:17.988Z,16.60
2019-05-09T14:47:47.751Z,16.50
2019-05-09T14:50:18.337Z,16.50
2019-05-09T14:52:50.326Z,16.70
2019-05-09T14:55:21.121Z,16.50
2019-05-09T14:57:51.673Z,16.50
2019-05-09T15:00:22.157Z,16.60
2019-05-09T15:02:52.735Z,16.70
2019-05-09T15:05:23.274Z,16.60
2019-05-09T15:07:54.174Z,16.50
2019-05-09T15:10:24.582Z,16.40
2019-05-09T15:12:55.120Z,16.30
2019-05-09T15:15:28.603Z,16.20
2019-05-09T15:17:59.537Z,16.20
2019-05-09T15:20:30.667Z,16.20
2019-05-09T15:23:01.315Z,16.10
2019-05-09T15:25:31.875Z,16.00
2019-05-09T15:28:02.292Z,16.00
2019-05-09T15:33:27.483Z,16.10
2019-05-09T15:35:58.960Z,16.00
2019-05-09T15:38:29.645Z,16.10
2019-05-09T15:41:00.156Z,16.20
2019-05-09T15:43:30.741Z,16.20
2019-05-09T15:46:11.113Z,16.20
2019-05-09T15:48:41.642Z,16.20
2019-05-09T15:51:11.981Z,16.20
2019-05-09T15:53:42.672Z,16.10
2019-05-09T15:56:13.115Z,16.20
2019-05-09T15:58:43.679Z,16.30
2019-05-09T16:01:14.340Z,16.40
2019-05-09T16:03:45.044Z,16.50
2019-05-09T16:06:18.370Z,16.50
2019-05-09T16:08:48.039Z,16.40
2019-05-09T16:11:18.644Z,16.30
2019-05-09T16:13:49.290Z,16.30
2019-05-09T16:16:19.848Z,16.10
2019-05-09T16:18:50.440Z,15.90
2019-05-09T16:21:21.048Z,15.80
2019-05-09T16:23:51.976Z,15.80
2019-05-09T16:26:22.587Z,15.60
2019-05-09T16:28:53.404Z,15.50
2019-05-09T16:31:23.907Z,15.60
2019-05-09T16:33:54.900Z,15.50
2019-05-09T16:36:28.000Z,15.60
2019-05-09T16:38:58.408Z,15.50
2019-05-09T16:41:29.236Z,15.50
2019-05-09T16:43:59.742Z,15.50
2019-05-09T16:46:30.552Z,15.60
2019-05-09T16:49:01.158Z,15.40
2019-05-09T16:51:31.725Z,15.30
2019-05-09T16:54:02.294Z,15.20
2019-05-09T16:56:34.029Z,15.10
2019-05-09T16:59:04.674Z,15.10
2019-05-09T17:01:39.448Z,15.20
2019-05-09T17:04:09.739Z,15.10
2019-05-09T17:06:40.682Z,15.10
2019-05-09T17:09:12.904Z,15.10
2019-05-09T17:11:43.544Z,15.10
2019-05-09T17:14:14.291Z,15.00
2019-05-09T17:16:44.762Z,14.90
2019-05-09T17:19:19.185Z,14.90
2019-05-09T17:21:58.531Z,14.80
2019-05-09T17:24:29.922Z,14.60
2019-05-09T17:27:01.522Z,14.60
2019-05-09T17:29:32.355Z,14.60
2019-05-09T17:32:03.237Z,14.50
2019-05-09T17:34:33.721Z,14.40
2019-05-09T17:37:04.789Z,14.40
2019-05-09T17:39:35.490Z,14.20
2019-05-09T17:42:07.627Z,14.20
2019-05-09T17:44:38.344Z,14.20
2019-05-09T17:47:08.901Z,14.20
2019-05-09T17:49:39.610Z,14.10
2019-05-09T17:52:10.265Z,14.20
2019-05-09T17:54:41.002Z,14.10
2019-05-09T17:57:11.602Z,14.10
2019-05-09T17:59:42.703Z,14.10
2019-05-09T18:02:13.390Z,14.10
2019-05-09T18:04:44.507Z,14.10
2019-05-09T18:07:15.160Z,14.00
2019-05-09T18:09:47.887Z,13.90
2019-05-09T18:12:18.958Z,13.90
2019-05-09T18:14:50.874Z,13.90
2019-05-09T18:17:21.484Z,13.90
2019-05-09T18:19:53.690Z,13.90
2019-05-09T18:22:24.250Z,13.80
2019-05-09T18:24:55.051Z,13.70
2019-05-09T18:27:27.449Z,13.60
2019-05-09T18:29:58.382Z,13.60
2019-05-09T18:32:39.178Z,13.70
2019-05-09T18:35:15.603Z,13.70
2019-05-09T18:37:48.111Z,13.60
2019-05-09T18:40:18.574Z,13.60
2019-05-09T18:42:50.362Z,13.60
2019-05-09T18:45:21.277Z,13.60
2019-05-09T18:47:51.929Z,13.60
2019-05-09T18:50:22.522Z,13.60
2019-05-09T18:52:53.070Z,13.60
2019-05-09T18:55:23.720Z,13.50
2019-05-09T18:57:54.227Z,13.50
2019-05-09T19:00:26.417Z,13.50
2019-05-09T19:02:57.218Z,13.60
2019-05-09T19:05:27.701Z,13.70
2019-05-09T19:07:58.313Z,13.60
2019-05-09T19:10:29.049Z,13.70
2019-05-09T19:12:59.743Z,13.70
2019-05-09T19:15:52.059Z,13.70
2019-05-09T19:18:40.513Z,13.60
2019-05-09T19:21:15.780Z,13.60
2019-05-09T19:23:46.627Z,13.50
2019-05-09T19:26:35.040Z,13.50
2019-05-09T19:29:06.897Z,13.40
2019-05-09T19:31:38.062Z,13.40
2019-05-09T19:34:08.831Z,13.50
2019-05-09T19:36:39.407Z,13.50
2019-05-09T19:39:11.185Z,13.50
2019-05-09T19:41:41.766Z,13.50
2019-05-09T19:44:12.285Z,13.60
2019-05-09T19:46:43.844Z,13.80
2019-05-09T19:49:14.519Z,13.80
2019-05-09T19:51:45.056Z,13.70
2019-05-09T19:54:15.612Z,13.70
2019-05-09T19:56:46.513Z,13.70
2019-05-09T19:59:17.122Z,13.60
2019-05-09T20:01:47.816Z,13.60
2019-05-09T20:04:19.502Z,13.70
2019-05-09T20:06:50.223Z,13.60
2019-05-09T20:09:29.237Z,13.50
2019-05-09T20:12:08.628Z,13.50
2019-05-09T20:14:42.148Z,13.60
2019-05-09T20:17:13.221Z,13.60
2019-05-09T20:19:43.693Z,13.50
2019-05-09T20:22:14.245Z,13.50
2019-05-09T20:24:44.959Z,13.60
2019-05-09T20:27:16.063Z,13.60
2019-05-09T20:29:46.688Z,13.60
2019-05-09T20:32:17.302Z,13.60
2019-05-09T20:34:47.813Z,13.60
2019-05-09T20:37:18.551Z,13.60
2019-05-09T20:39:49.410Z,13.70
2019-05-09T20:42:20.290Z,13.60
2019-05-09T20:44:51.029Z,13.60
2019-05-09T20:47:21.727Z,13.60
2019-05-09T20:49:52.409Z,13.60
2019-05-09T20:52:24.752Z,13.50
2019-05-09T20:54:56.467Z,13.50
2019-05-09T20:57:27.273Z,13.50
2019-05-09T20:59:57.957Z,13.50
2019-05-09T21:02:28.766Z,13.50
2019-05-09T21:04:59.439Z,13.50
2019-05-09T21:07:30.124Z,13.60
2019-05-09T21:10:00.833Z,13.60
2019-05-09T21:12:31.601Z,13.60
2019-05-09T21:15:02.361Z,13.70
2019-05-09T21:17:33.429Z,13.70
2019-05-09T21:20:04.131Z,13.60
2019-05-09T21:22:35.317Z,13.60
2019-05-09T21:25:06.941Z,13.60
2019-05-09T21:27:37.769Z,13.50
2019-05-09T21:30:09.275Z,13.40
2019-05-09T21:32:39.970Z,13.60
2019-05-09T21:35:10.785Z,13.60
2019-05-09T21:37:41.349Z,13.60
2019-05-09T21:40:12.509Z,13.60
2019-05-09T21:42:43.027Z,13.70
2019-05-09T21:45:14.108Z,13.70
2019-05-09T21:47:44.762Z,13.70
2019-05-09T21:50:15.693Z,13.60
2019-05-09T21:52:46.409Z,13.60
2019-05-09T21:55:17.358Z,13.60
2019-05-09T21:57:48.328Z,13.50
2019-05-09T22:00:24.434Z,13.40
2019-05-09T22:02:56.581Z,13.40
2019-05-09T22:05:27.174Z,13.30
2019-05-09T22:07:57.944Z,13.40
2019-05-09T22:10:28.516Z,13.50
2019-05-09T22:12:59.279Z,13.60
2019-05-09T22:15:29.804Z,13.60
2019-05-09T22:18:00.460Z,13.40
2019-05-09T22:20:31.062Z,13.40
2019-05-09T22:23:01.766Z,13.40
2019-05-09T22:25:32.330Z,13.50
2019-05-09T22:28:03.096Z,13.40
2019-05-09T22:30:33.688Z,13.40
2019-05-09T22:33:04.251Z,13.30
2019-05-09T22:35:35.011Z,13.30
2019-05-09T22:38:05.684Z,13.20
2019-05-09T22:40:36.375Z,13.20
2019-05-09T22:43:07.572Z,13.10
2019-05-09T22:45:38.058Z,13.20
2019-05-09T22:48:08.571Z,13.20
2019-05-09T22:50:38.997Z,13.20
2019-05-09T22:53:09.462Z,13.30
2019-05-09T22:55:39.885Z,13.20
2019-05-09T22:58:10.374Z,13.20
2019-05-09T23:00:40.891Z,13.20
2019-05-09T23:03:11.399Z,13.20
2019-05-09T23:05:41.984Z,13.20
2019-05-09T23:08:13.562Z,13.10
2019-05-09T23:10:44.093Z,13.10
2019-05-09T23:13:16.388Z,13.20
2019-05-09T23:15:46.845Z,13.20
2019-05-09T23:18:17.466Z,13.20
2019-05-09T23:20:54.264Z,13.20
2019-05-09T23:23:29.559Z,13.30
2019-05-09T23:26:00.413Z,13.20
2019-05-09T23:28:32.143Z,13.20
2019-05-09T23:31:05.611Z,13.10
2019-05-09T23:33:38.954Z,13.10
2019-05-09T23:36:10.527Z,13.00
2019-05-09T23:38:58.950Z,12.90
2019-05-09T23:41:29.422Z,12.90
2019-05-09T23:43:59.990Z,12.90
2019-05-09T23:46:30.626Z,12.90
2019-05-09T23:49:01.554Z,12.90
2019-05-09T23:51:47.960Z,12.80
2019-05-09T23:54:47.202Z,12.70
2019-05-09T23:57:29.004Z,12.70
